Sultan, Canada
Current Conditions -  °F | °C
As of 7:00 PM on Thursday 27 Nov 2014 (Local Time) from CYLD Reporting Station
Light Snow Light Snow  
Wind Chill: -17°   Ceiling: Unl
Heat Index: -6°   Visibility: 15mi
Dew Point: -13°   Wind: 5mph
Humidity: 71%   Direction: 320°NW
Pressure: 30.19"   Gusts: NA
Location:  47.58°N, 82.77°W
Report Text: CYLD 280000Z 32004KT 15SM -SN FEW020 M21/M25 A3019 RMK SC2 SLP271
Loading
Personal Weather Stations






























Interactive Weather Map New forecast layout! Learn more

10-Day Weather Forecast

Advertisements
Track Severe Weather on mobile